sensor_id;sensor_type;location;lat;lon;timestamp;P1;durP1;ratioP1;P2;durP2;ratioP2
10884;SDS011;5495;53.252;10.390;2023-02-19T00:03:15;16.93;;;10.50;;
10884;SDS011;5495;53.252;10.390;2023-02-19T00:05:43;16.13;;;12.00;;
10884;SDS011;5495;53.252;10.390;2023-02-19T00:08:12;15.87;;;11.60;;
10884;SDS011;5495;53.252;10.390;2023-02-19T00:10:47;17.07;;;12.93;;
10884;SDS011;5495;53.252;10.390;2023-02-19T00:13:14;17.17;;;12.83;;
10884;SDS011;5495;53.252;10.390;2023-02-19T00:15:43;19.07;;;13.73;;
10884;SDS011;5495;53.252;10.390;2023-02-19T00:18:11;18.27;;;13.00;;
10884;SDS011;5495;53.252;10.390;2023-02-19T00:20:39;18.50;;;12.30;;
10884;SDS011;5495;53.252;10.390;2023-02-19T00:23:07;19.10;;;13.63;;
10884;SDS011;5495;53.252;10.390;2023-02-19T00:25:36;19.27;;;13.57;;
10884;SDS011;5495;53.252;10.390;2023-02-19T00:28:04;21.07;;;14.00;;
10884;SDS011;5495;53.252;10.390;2023-02-19T00:30:32;17.27;;;12.87;;
10884;SDS011;5495;53.252;10.390;2023-02-19T00:32:59;17.73;;;13.47;;
10884;SDS011;5495;53.252;10.390;2023-02-19T00:35:32;20.53;;;13.57;;
10884;SDS011;5495;53.252;10.390;2023-02-19T00:37:59;22.87;;;14.00;;
10884;SDS011;5495;53.252;10.390;2023-02-19T00:40:27;22.83;;;13.30;;
10884;SDS011;5495;53.252;10.390;2023-02-19T00:42:55;17.63;;;12.87;;
10884;SDS011;5495;53.252;10.390;2023-02-19T00:45:24;16.03;;;11.87;;
10884;SDS011;5495;53.252;10.390;2023-02-19T00:47:51;19.20;;;12.67;;
10884;SDS011;5495;53.252;10.390;2023-02-19T00:50:18;21.83;;;13.30;;
10884;SDS011;5495;53.252;10.390;2023-02-19T00:52:46;18.90;;;12.63;;
10884;SDS011;5495;53.252;10.390;2023-02-19T00:55:13;14.70;;;11.57;;
10884;SDS011;5495;53.252;10.390;2023-02-19T00:57:41;24.57;;;11.77;;
10884;SDS011;5495;53.252;10.390;2023-02-19T01:00:11;20.43;;;12.10;;
10884;SDS011;5495;53.252;10.390;2023-02-19T01:02:39;20.00;;;12.83;;
10884;SDS011;5495;53.252;10.390;2023-02-19T01:05:06;19.33;;;13.10;;
10884;SDS011;5495;53.252;10.390;2023-02-19T01:07:36;17.37;;;12.13;;
10884;SDS011;5495;53.252;10.390;2023-02-19T01:10:04;17.77;;;13.23;;
10884;SDS011;5495;53.252;10.390;2023-02-19T01:12:32;19.07;;;13.30;;
10884;SDS011;5495;53.252;10.390;2023-02-19T01:14:59;17.80;;;12.73;;
10884;SDS011;5495;53.252;10.390;2023-02-19T01:17:28;24.23;;;13.37;;
10884;SDS011;5495;53.252;10.390;2023-02-19T01:19:55;22.07;;;14.07;;
10884;SDS011;5495;53.252;10.390;2023-02-19T01:22:23;20.60;;;13.27;;
10884;SDS011;5495;53.252;10.390;2023-02-19T01:24:50;18.53;;;13.17;;
10884;SDS011;5495;53.252;10.390;2023-02-19T01:27:17;19.57;;;13.27;;
10884;SDS011;5495;53.252;10.390;2023-02-19T01:29:45;19.10;;;13.43;;
10884;SDS011;5495;53.252;10.390;2023-02-19T01:32:12;19.87;;;12.40;;
10884;SDS011;5495;53.252;10.390;2023-02-19T01:34:41;17.33;;;12.90;;
10884;SDS011;5495;53.252;10.390;2023-02-19T01:37:10;16.10;;;12.70;;
10884;SDS011;5495;53.252;10.390;2023-02-19T01:39:39;20.20;;;14.10;;
10884;SDS011;5495;53.252;10.390;2023-02-19T01:42:09;20.70;;;13.93;;
10884;SDS011;5495;53.252;10.390;2023-02-19T01:47:50;19.97;;;14.23;;
10884;SDS011;5495;53.252;10.390;2023-02-19T01:50:22;20.37;;;13.93;;
10884;SDS011;5495;53.252;10.390;2023-02-19T01:52:53;17.83;;;13.50;;
10884;SDS011;5495;53.252;10.390;2023-02-19T01:55:21;20.63;;;14.50;;
10884;SDS011;5495;53.252;10.390;2023-02-19T01:57:52;19.93;;;13.93;;
10884;SDS011;5495;53.252;10.390;2023-02-19T02:00:21;17.30;;;12.43;;
10884;SDS011;5495;53.252;10.390;2023-02-19T02:02:50;17.07;;;12.83;;
10884;SDS011;5495;53.252;10.390;2023-02-19T02:05:24;17.10;;;12.07;;
10884;SDS011;5495;53.252;10.390;2023-02-19T02:08:18;19.33;;;11.90;;
10884;SDS011;5495;53.252;10.390;2023-02-19T02:11:03;17.00;;;11.73;;
10884;SDS011;5495;53.252;10.390;2023-02-19T02:13:34;17.00;;;11.90;;
10884;SDS011;5495;53.252;10.390;2023-02-19T02:16:07;15.57;;;10.93;;
10884;SDS011;5495;53.252;10.390;2023-02-19T02:18:48;17.27;;;11.10;;
10884;SDS011;5495;53.252;10.390;2023-02-19T02:21:32;14.23;;;9.47;;
10884;SDS011;5495;53.252;10.390;2023-02-19T02:24:10;14.73;;;10.10;;
10884;SDS011;5495;53.252;10.390;2023-02-19T02:26:59;11.33;;;9.37;;
10884;SDS011;5495;53.252;10.390;2023-02-19T02:29:59;13.27;;;9.03;;
10884;SDS011;5495;53.252;10.390;2023-02-19T02:32:53;15.57;;;9.80;;
10884;SDS011;5495;53.252;10.390;2023-02-19T02:35:31;17.03;;;10.27;;
10884;SDS011;5495;53.252;10.390;2023-02-19T02:38:04;10.40;;;7.27;;
10884;SDS011;5495;53.252;10.390;2023-02-19T02:40:33;9.77;;;7.60;;
10884;SDS011;5495;53.252;10.390;2023-02-19T02:43:01;7.17;;;5.83;;
10884;SDS011;5495;53.252;10.390;2023-02-19T02:45:30;9.23;;;5.80;;
10884;SDS011;5495;53.252;10.390;2023-02-19T02:48:09;9.83;;;5.87;;
10884;SDS011;5495;53.252;10.390;2023-02-19T02:50:43;12.23;;;5.77;;
10884;SDS011;5495;53.252;10.390;2023-02-19T02:53:17;9.07;;;5.73;;
10884;SDS011;5495;53.252;10.390;2023-02-19T02:56:09;9.10;;;6.20;;
10884;SDS011;5495;53.252;10.390;2023-02-19T02:58:39;8.93;;;5.97;;
10884;SDS011;5495;53.252;10.390;2023-02-19T03:01:10;12.97;;;7.03;;
10884;SDS011;5495;53.252;10.390;2023-02-19T03:03:59;9.60;;;6.37;;
10884;SDS011;5495;53.252;10.390;2023-02-19T03:06:30;10.10;;;7.50;;
10884;SDS011;5495;53.252;10.390;2023-02-19T03:09:03;9.83;;;7.20;;
10884;SDS011;5495;53.252;10.390;2023-02-19T03:11:34;10.63;;;6.50;;
10884;SDS011;5495;53.252;10.390;2023-02-19T03:14:24;11.47;;;6.67;;
10884;SDS011;5495;53.252;10.390;2023-02-19T03:17:17;9.77;;;7.13;;
10884;SDS011;5495;53.252;10.390;2023-02-19T03:20:20;10.07;;;6.70;;
10884;SDS011;5495;53.252;10.390;2023-02-19T03:22:51;10.70;;;8.17;;
10884;SDS011;5495;53.252;10.390;2023-02-19T03:25:20;9.57;;;7.03;;
10884;SDS011;5495;53.252;10.390;2023-02-19T03:28:09;6.70;;;4.67;;
10884;SDS011;5495;53.252;10.390;2023-02-19T03:30:40;6.80;;;4.60;;
10884;SDS011;5495;53.252;10.390;2023-02-19T03:33:14;5.33;;;3.17;;
10884;SDS011;5495;53.252;10.390;2023-02-19T03:35:46;4.07;;;2.27;;
10884;SDS011;5495;53.252;10.390;2023-02-19T03:38:19;4.13;;;1.63;;
10884;SDS011;5495;53.252;10.390;2023-02-19T03:40:52;3.57;;;1.70;;
10884;SDS011;5495;53.252;10.390;2023-02-19T03:43:26;6.13;;;1.83;;
10884;SDS011;5495;53.252;10.390;2023-02-19T03:46:03;4.87;;;1.83;;
10884;SDS011;5495;53.252;10.390;2023-02-19T03:48:40;4.17;;;1.83;;
10884;SDS011;5495;53.252;10.390;2023-02-19T03:51:19;3.00;;;1.60;;
10884;SDS011;5495;53.252;10.390;2023-02-19T03:53:58;4.50;;;1.70;;
10884;SDS011;5495;53.252;10.390;2023-02-19T03:56:37;6.00;;;1.80;;
10884;SDS011;5495;53.252;10.390;2023-02-19T03:59:10;5.37;;;2.10;;
10884;SDS011;5495;53.252;10.390;2023-02-19T04:01:40;4.00;;;1.43;;
10884;SDS011;5495;53.252;10.390;2023-02-19T04:04:15;3.90;;;2.00;;
10884;SDS011;5495;53.252;10.390;2023-02-19T04:06:46;3.40;;;1.70;;
10884;SDS011;5495;53.252;10.390;2023-02-19T04:09:18;4.30;;;1.80;;
10884;SDS011;5495;53.252;10.390;2023-02-19T04:11:47;4.17;;;1.97;;
10884;SDS011;5495;53.252;10.390;2023-02-19T04:14:17;3.20;;;1.73;;
10884;SDS011;5495;53.252;10.390;2023-02-19T04:16:48;6.77;;;2.70;;
10884;SDS011;5495;53.252;10.390;2023-02-19T04:19:23;4.53;;;1.90;;
10884;SDS011;5495;53.252;10.390;2023-02-19T04:21:52;3.33;;;1.73;;
10884;SDS011;5495;53.252;10.390;2023-02-19T04:24:23;3.60;;;1.53;;
10884;SDS011;5495;53.252;10.390;2023-02-19T04:26:53;9.80;;;1.90;;
10884;SDS011;5495;53.252;10.390;2023-02-19T04:29:21;6.00;;;1.30;;
10884;SDS011;5495;53.252;10.390;2023-02-19T04:31:48;6.33;;;2.37;;
10884;SDS011;5495;53.252;10.390;2023-02-19T04:34:17;4.43;;;1.83;;
10884;SDS011;5495;53.252;10.390;2023-02-19T04:36:46;5.00;;;1.50;;
10884;SDS011;5495;53.252;10.390;2023-02-19T04:39:13;3.97;;;1.70;;
10884;SDS011;5495;53.252;10.390;2023-02-19T04:41:40;5.50;;;1.70;;
10884;SDS011;5495;53.252;10.390;2023-02-19T04:44:14;2.57;;;1.23;;
10884;SDS011;5495;53.252;10.390;2023-02-19T04:46:41;4.13;;;1.63;;
10884;SDS011;5495;53.252;10.390;2023-02-19T04:49:09;4.03;;;1.50;;
10884;SDS011;5495;53.252;10.390;2023-02-19T04:51:37;4.80;;;1.70;;
10884;SDS011;5495;53.252;10.390;2023-02-19T04:54:06;5.83;;;2.33;;
10884;SDS011;5495;53.252;10.390;2023-02-19T04:56:33;4.80;;;1.67;;
10884;SDS011;5495;53.252;10.390;2023-02-19T04:59:01;6.23;;;1.60;;
10884;SDS011;5495;53.252;10.390;2023-02-19T05:01:28;4.47;;;2.07;;
10884;SDS011;5495;53.252;10.390;2023-02-19T05:03:55;6.23;;;1.90;;
10884;SDS011;5495;53.252;10.390;2023-02-19T05:06:23;5.13;;;1.73;;
10884;SDS011;5495;53.252;10.390;2023-02-19T05:08:52;4.70;;;2.10;;
10884;SDS011;5495;53.252;10.390;2023-02-19T05:11:21;5.47;;;1.60;;
10884;SDS011;5495;53.252;10.390;2023-02-19T05:13:49;5.83;;;1.90;;
10884;SDS011;5495;53.252;10.390;2023-02-19T05:16:17;5.57;;;1.60;;
10884;SDS011;5495;53.252;10.390;2023-02-19T05:18:45;5.80;;;1.90;;
10884;SDS011;5495;53.252;10.390;2023-02-19T05:21:12;3.70;;;1.53;;
10884;SDS011;5495;53.252;10.390;2023-02-19T05:23:40;4.00;;;1.70;;
10884;SDS011;5495;53.252;10.390;2023-02-19T05:26:10;4.03;;;2.10;;
10884;SDS011;5495;53.252;10.390;2023-02-19T05:28:42;5.07;;;1.73;;
10884;SDS011;5495;53.252;10.390;2023-02-19T05:31:10;5.27;;;2.03;;
10884;SDS011;5495;53.252;10.390;2023-02-19T05:33:38;4.60;;;1.97;;
10884;SDS011;5495;53.252;10.390;2023-02-19T05:36:08;5.20;;;1.90;;
10884;SDS011;5495;53.252;10.390;2023-02-19T05:38:37;7.67;;;2.30;;
10884;SDS011;5495;53.252;10.390;2023-02-19T05:41:10;6.67;;;2.50;;
10884;SDS011;5495;53.252;10.390;2023-02-19T05:43:38;8.23;;;2.13;;
10884;SDS011;5495;53.252;10.390;2023-02-19T05:46:08;4.07;;;1.83;;
10884;SDS011;5495;53.252;10.390;2023-02-19T05:48:38;5.57;;;2.10;;
10884;SDS011;5495;53.252;10.390;2023-02-19T05:51:06;2.43;;;1.57;;
10884;SDS011;5495;53.252;10.390;2023-02-19T05:53:35;2.97;;;1.67;;
10884;SDS011;5495;53.252;10.390;2023-02-19T05:56:03;7.70;;;1.87;;
10884;SDS011;5495;53.252;10.390;2023-02-19T05:58:45;2.83;;;1.53;;
10884;SDS011;5495;53.252;10.390;2023-02-19T06:01:15;6.67;;;2.23;;
10884;SDS011;5495;53.252;10.390;2023-02-19T06:03:43;4.03;;;1.77;;
10884;SDS011;5495;53.252;10.390;2023-02-19T06:06:11;3.53;;;1.80;;
10884;SDS011;5495;53.252;10.390;2023-02-19T06:08:39;4.17;;;1.53;;
10884;SDS011;5495;53.252;10.390;2023-02-19T06:11:14;9.17;;;2.00;;
10884;SDS011;5495;53.252;10.390;2023-02-19T06:13:42;6.07;;;2.03;;
10884;SDS011;5495;53.252;10.390;2023-02-19T06:16:09;4.33;;;1.60;;
10884;SDS011;5495;53.252;10.390;2023-02-19T06:18:38;4.17;;;1.77;;
10884;SDS011;5495;53.252;10.390;2023-02-19T06:21:06;5.20;;;1.87;;
10884;SDS011;5495;53.252;10.390;2023-02-19T06:23:35;7.57;;;1.70;;
10884;SDS011;5495;53.252;10.390;2023-02-19T06:26:06;7.57;;;2.33;;
10884;SDS011;5495;53.252;10.390;2023-02-19T06:28:35;3.83;;;2.00;;
10884;SDS011;5495;53.252;10.390;2023-02-19T06:31:03;5.30;;;1.70;;
10884;SDS011;5495;53.252;10.390;2023-02-19T06:33:31;4.57;;;1.53;;
10884;SDS011;5495;53.252;10.390;2023-02-19T06:36:00;5.30;;;1.77;;
10884;SDS011;5495;53.252;10.390;2023-02-19T06:38:29;2.33;;;1.57;;
10884;SDS011;5495;53.252;10.390;2023-02-19T06:40:58;4.07;;;1.67;;
10884;SDS011;5495;53.252;10.390;2023-02-19T06:43:26;3.70;;;1.50;;
10884;SDS011;5495;53.252;10.390;2023-02-19T06:45:56;6.63;;;2.03;;
10884;SDS011;5495;53.252;10.390;2023-02-19T06:48:24;3.30;;;1.23;;
10884;SDS011;5495;53.252;10.390;2023-02-19T06:50:51;6.00;;;2.00;;
10884;SDS011;5495;53.252;10.390;2023-02-19T06:53:20;5.60;;;1.80;;
10884;SDS011;5495;53.252;10.390;2023-02-19T06:55:54;4.37;;;1.60;;
10884;SDS011;5495;53.252;10.390;2023-02-19T06:58:22;6.90;;;2.00;;
10884;SDS011;5495;53.252;10.390;2023-02-19T07:00:49;4.57;;;2.30;;
10884;SDS011;5495;53.252;10.390;2023-02-19T07:03:17;4.43;;;2.00;;
10884;SDS011;5495;53.252;10.390;2023-02-19T07:05:44;5.70;;;2.03;;
10884;SDS011;5495;53.252;10.390;2023-02-19T07:08:11;4.40;;;1.80;;
10884;SDS011;5495;53.252;10.390;2023-02-19T07:10:42;7.47;;;2.10;;
10884;SDS011;5495;53.252;10.390;2023-02-19T07:13:10;4.27;;;2.40;;
10884;SDS011;5495;53.252;10.390;2023-02-19T07:15:37;7.47;;;2.70;;
10884;SDS011;5495;53.252;10.390;2023-02-19T07:18:04;7.07;;;2.83;;
10884;SDS011;5495;53.252;10.390;2023-02-19T07:20:34;9.47;;;3.23;;
10884;SDS011;5495;53.252;10.390;2023-02-19T07:23:02;5.50;;;3.23;;
10884;SDS011;5495;53.252;10.390;2023-02-19T07:25:30;10.13;;;3.50;;
10884;SDS011;5495;53.252;10.390;2023-02-19T07:27:58;12.03;;;4.30;;
10884;SDS011;5495;53.252;10.390;2023-02-19T07:30:26;6.90;;;3.23;;
10884;SDS011;5495;53.252;10.390;2023-02-19T07:32:53;10.03;;;3.40;;
10884;SDS011;5495;53.252;10.390;2023-02-19T07:35:21;8.93;;;3.77;;
10884;SDS011;5495;53.252;10.390;2023-02-19T07:37:48;7.83;;;3.10;;
10884;SDS011;5495;53.252;10.390;2023-02-19T07:40:16;9.53;;;3.47;;
10884;SDS011;5495;53.252;10.390;2023-02-19T07:42:44;7.93;;;3.33;;
10884;SDS011;5495;53.252;10.390;2023-02-19T07:45:13;6.50;;;2.73;;
10884;SDS011;5495;53.252;10.390;2023-02-19T07:47:41;7.97;;;2.83;;
10884;SDS011;5495;53.252;10.390;2023-02-19T07:50:09;10.67;;;3.20;;
10884;SDS011;5495;53.252;10.390;2023-02-19T07:52:36;7.13;;;2.93;;
10884;SDS011;5495;53.252;10.390;2023-02-19T07:55:03;10.63;;;2.63;;
10884;SDS011;5495;53.252;10.390;2023-02-19T07:57:32;7.00;;;2.73;;
10884;SDS011;5495;53.252;10.390;2023-02-19T07:59:59;7.67;;;3.07;;
10884;SDS011;5495;53.252;10.390;2023-02-19T08:02:30;5.13;;;2.57;;
10884;SDS011;5495;53.252;10.390;2023-02-19T08:05:17;8.07;;;2.47;;
10884;SDS011;5495;53.252;10.390;2023-02-19T08:07:44;7.47;;;2.97;;
10884;SDS011;5495;53.252;10.390;2023-02-19T08:10:11;11.37;;;2.50;;
10884;SDS011;5495;53.252;10.390;2023-02-19T08:12:57;7.23;;;2.80;;
10884;SDS011;5495;53.252;10.390;2023-02-19T08:15:42;8.73;;;2.80;;
10884;SDS011;5495;53.252;10.390;2023-02-19T08:18:12;6.47;;;2.17;;
10884;SDS011;5495;53.252;10.390;2023-02-19T08:20:40;12.17;;;3.17;;
10884;SDS011;5495;53.252;10.390;2023-02-19T08:23:08;7.03;;;2.90;;
10884;SDS011;5495;53.252;10.390;2023-02-19T08:25:36;9.73;;;3.00;;
10884;SDS011;5495;53.252;10.390;2023-02-19T08:28:04;6.10;;;2.43;;
10884;SDS011;5495;53.252;10.390;2023-02-19T08:30:33;6.43;;;2.77;;
10884;SDS011;5495;53.252;10.390;2023-02-19T08:33:02;7.70;;;2.47;;
10884;SDS011;5495;53.252;10.390;2023-02-19T08:35:32;14.60;;;3.07;;
10884;SDS011;5495;53.252;10.390;2023-02-19T08:38:00;6.23;;;2.57;;
10884;SDS011;5495;53.252;10.390;2023-02-19T08:40:28;7.87;;;2.43;;
10884;SDS011;5495;53.252;10.390;2023-02-19T08:43:00;10.53;;;2.70;;
10884;SDS011;5495;53.252;10.390;2023-02-19T08:45:29;9.07;;;2.80;;
10884;SDS011;5495;53.252;10.390;2023-02-19T08:47:56;9.07;;;2.60;;
10884;SDS011;5495;53.252;10.390;2023-02-19T08:50:23;11.37;;;3.03;;
10884;SDS011;5495;53.252;10.390;2023-02-19T08:52:53;6.37;;;2.60;;
10884;SDS011;5495;53.252;10.390;2023-02-19T08:55:21;7.67;;;2.30;;
10884;SDS011;5495;53.252;10.390;2023-02-19T08:57:52;7.60;;;2.20;;
10884;SDS011;5495;53.252;10.390;2023-02-19T09:00:22;5.80;;;2.17;;
10884;SDS011;5495;53.252;10.390;2023-02-19T09:02:53;8.20;;;2.50;;
10884;SDS011;5495;53.252;10.390;2023-02-19T09:05:22;6.43;;;2.63;;
10884;SDS011;5495;53.252;10.390;2023-02-19T09:07:57;5.07;;;2.40;;
10884;SDS011;5495;53.252;10.390;2023-02-19T09:10:24;7.00;;;2.27;;
10884;SDS011;5495;53.252;10.390;2023-02-19T09:12:53;8.60;;;2.50;;
10884;SDS011;5495;53.252;10.390;2023-02-19T09:15:21;10.93;;;2.30;;
10884;SDS011;5495;53.252;10.390;2023-02-19T09:17:50;8.43;;;1.70;;
10884;SDS011;5495;53.252;10.390;2023-02-19T09:20:17;8.23;;;2.17;;
10884;SDS011;5495;53.252;10.390;2023-02-19T09:22:45;5.37;;;2.00;;
10884;SDS011;5495;53.252;10.390;2023-02-19T09:25:13;8.07;;;2.20;;
10884;SDS011;5495;53.252;10.390;2023-02-19T09:27:43;4.37;;;2.03;;
10884;SDS011;5495;53.252;10.390;2023-02-19T09:30:11;6.97;;;2.23;;
10884;SDS011;5495;53.252;10.390;2023-02-19T09:32:38;9.60;;;2.33;;
10884;SDS011;5495;53.252;10.390;2023-02-19T09:35:06;5.10;;;1.80;;
10884;SDS011;5495;53.252;10.390;2023-02-19T09:37:33;8.00;;;1.83;;
10884;SDS011;5495;53.252;10.390;2023-02-19T09:40:01;6.47;;;2.30;;
10884;SDS011;5495;53.252;10.390;2023-02-19T09:42:32;8.97;;;1.83;;
10884;SDS011;5495;53.252;10.390;2023-02-19T09:44:59;7.90;;;1.50;;
10884;SDS011;5495;53.252;10.390;2023-02-19T09:47:30;5.07;;;1.87;;
10884;SDS011;5495;53.252;10.390;2023-02-19T09:49:59;8.73;;;1.97;;
10884;SDS011;5495;53.252;10.390;2023-02-19T09:52:35;7.87;;;1.60;;
10884;SDS011;5495;53.252;10.390;2023-02-19T09:55:12;8.97;;;2.00;;
10884;SDS011;5495;53.252;10.390;2023-02-19T09:57:42;6.57;;;1.57;;
10884;SDS011;5495;53.252;10.390;2023-02-19T10:00:17;4.37;;;1.27;;
10884;SDS011;5495;53.252;10.390;2023-02-19T10:02:49;10.57;;;2.00;;
10884;SDS011;5495;53.252;10.390;2023-02-19T10:05:21;8.37;;;1.23;;
10884;SDS011;5495;53.252;10.390;2023-02-19T10:07:50;6.63;;;1.33;;
10884;SDS011;5495;53.252;10.390;2023-02-19T10:10:26;4.40;;;1.30;;
10884;SDS011;5495;53.252;10.390;2023-02-19T10:13:04;6.03;;;1.27;;
10884;SDS011;5495;53.252;10.390;2023-02-19T10:15:41;4.97;;;1.47;;
10884;SDS011;5495;53.252;10.390;2023-02-19T10:18:23;10.97;;;2.00;;
10884;SDS011;5495;53.252;10.390;2023-02-19T10:20:53;7.83;;;1.30;;
10884;SDS011;5495;53.252;10.390;2023-02-19T10:23:21;6.03;;;1.20;;
10884;SDS011;5495;53.252;10.390;2023-02-19T10:25:51;7.13;;;1.60;;
10884;SDS011;5495;53.252;10.390;2023-02-19T10:28:23;6.63;;;1.33;;
10884;SDS011;5495;53.252;10.390;2023-02-19T10:30:55;9.63;;;1.33;;
10884;SDS011;5495;53.252;10.390;2023-02-19T10:33:24;6.80;;;1.27;;
10884;SDS011;5495;53.252;10.390;2023-02-19T10:35:53;6.17;;;1.33;;
10884;SDS011;5495;53.252;10.390;2023-02-19T10:38:23;5.30;;;1.13;;
10884;SDS011;5495;53.252;10.390;2023-02-19T10:40:57;3.90;;;1.30;;
10884;SDS011;5495;53.252;10.390;2023-02-19T10:43:30;4.57;;;1.40;;
10884;SDS011;5495;53.252;10.390;2023-02-19T10:46:07;4.70;;;1.13;;
10884;SDS011;5495;53.252;10.390;2023-02-19T10:48:44;9.10;;;1.53;;
10884;SDS011;5495;53.252;10.390;2023-02-19T10:51:15;9.77;;;1.33;;
10884;SDS011;5495;53.252;10.390;2023-02-19T10:53:47;3.13;;;1.13;;
10884;SDS011;5495;53.252;10.390;2023-02-19T10:56:22;5.07;;;1.10;;
10884;SDS011;5495;53.252;10.390;2023-02-19T10:58:52;5.63;;;1.50;;
10884;SDS011;5495;53.252;10.390;2023-02-19T11:01:20;4.77;;;1.50;;
10884;SDS011;5495;53.252;10.390;2023-02-19T11:03:49;3.03;;;1.30;;
10884;SDS011;5495;53.252;10.390;2023-02-19T11:06:18;6.27;;;1.17;;
10884;SDS011;5495;53.252;10.390;2023-02-19T11:08:51;2.17;;;0.80;;
10884;SDS011;5495;53.252;10.390;2023-02-19T11:11:34;6.37;;;1.30;;
10884;SDS011;5495;53.252;10.390;2023-02-19T11:14:11;3.07;;;0.97;;
10884;SDS011;5495;53.252;10.390;2023-02-19T11:16:42;5.27;;;1.13;;
10884;SDS011;5495;53.252;10.390;2023-02-19T11:19:22;4.77;;;1.00;;
10884;SDS011;5495;53.252;10.390;2023-02-19T11:21:52;4.53;;;1.10;;
10884;SDS011;5495;53.252;10.390;2023-02-19T11:24:22;4.47;;;1.07;;
10884;SDS011;5495;53.252;10.390;2023-02-19T11:26:52;2.63;;;0.87;;
10884;SDS011;5495;53.252;10.390;2023-02-19T11:29:21;2.83;;;0.93;;
10884;SDS011;5495;53.252;10.390;2023-02-19T11:31:53;3.37;;;1.10;;
10884;SDS011;5495;53.252;10.390;2023-02-19T11:34:23;3.77;;;1.10;;
10884;SDS011;5495;53.252;10.390;2023-02-19T11:37:07;7.13;;;1.27;;
10884;SDS011;5495;53.252;10.390;2023-02-19T11:39:38;5.23;;;1.20;;
10884;SDS011;5495;53.252;10.390;2023-02-19T11:45:12;4.40;;;1.20;;
10884;SDS011;5495;53.252;10.390;2023-02-19T11:51:08;5.47;;;1.10;;
10884;SDS011;5495;53.252;10.390;2023-02-19T11:53:51;2.40;;;1.00;;
10884;SDS011;5495;53.252;10.390;2023-02-19T11:56:36;3.03;;;1.20;;
10884;SDS011;5495;53.252;10.390;2023-02-19T11:59:23;1.83;;;0.80;;
10884;SDS011;5495;53.252;10.390;2023-02-19T12:02:05;2.70;;;0.97;;
10884;SDS011;5495;53.252;10.390;2023-02-19T12:11:17;1.60;;;0.80;;
10884;SDS011;5495;53.252;10.390;2023-02-19T12:14:06;2.70;;;0.87;;
10884;SDS011;5495;53.252;10.390;2023-02-19T12:16:49;1.23;;;0.90;;
10884;SDS011;5495;53.252;10.390;2023-02-19T12:19:31;4.53;;;1.17;;
10884;SDS011;5495;53.252;10.390;2023-02-19T12:22:11;3.50;;;1.20;;
10884;SDS011;5495;53.252;10.390;2023-02-19T12:28:17;2.97;;;1.30;;
10884;SDS011;5495;53.252;10.390;2023-02-19T12:31:16;2.67;;;1.00;;
10884;SDS011;5495;53.252;10.390;2023-02-19T12:34:15;2.00;;;0.97;;
10884;SDS011;5495;53.252;10.390;2023-02-19T12:37:15;3.73;;;1.20;;
10884;SDS011;5495;53.252;10.390;2023-02-19T12:39:50;4.33;;;1.20;;
10884;SDS011;5495;53.252;10.390;2023-02-19T12:42:33;3.03;;;1.03;;
10884;SDS011;5495;53.252;10.390;2023-02-19T12:45:17;2.60;;;0.97;;
10884;SDS011;5495;53.252;10.390;2023-02-19T12:47:49;3.23;;;1.10;;
10884;SDS011;5495;53.252;10.390;2023-02-19T12:50:23;1.57;;;0.90;;
10884;SDS011;5495;53.252;10.390;2023-02-19T12:52:55;3.33;;;1.13;;
10884;SDS011;5495;53.252;10.390;2023-02-19T12:55:27;2.47;;;1.00;;
10884;SDS011;5495;53.252;10.390;2023-02-19T12:57:57;4.13;;;1.10;;
10884;SDS011;5495;53.252;10.390;2023-02-19T13:00:29;2.23;;;0.90;;
10884;SDS011;5495;53.252;10.390;2023-02-19T13:03:02;2.50;;;1.00;;
10884;SDS011;5495;53.252;10.390;2023-02-19T13:05:43;7.33;;;1.37;;
10884;SDS011;5495;53.252;10.390;2023-02-19T13:08:17;3.37;;;1.10;;
10884;SDS011;5495;53.252;10.390;2023-02-19T13:10:53;2.10;;;0.97;;
10884;SDS011;5495;53.252;10.390;2023-02-19T13:13:29;2.77;;;0.70;;
10884;SDS011;5495;53.252;10.390;2023-02-19T13:16:03;3.63;;;1.00;;
10884;SDS011;5495;53.252;10.390;2023-02-19T13:18:36;2.57;;;0.90;;
10884;SDS011;5495;53.252;10.390;2023-02-19T13:21:13;2.07;;;0.90;;
10884;SDS011;5495;53.252;10.390;2023-02-19T13:24:08;4.37;;;1.13;;
10884;SDS011;5495;53.252;10.390;2023-02-19T13:26:57;3.80;;;1.10;;
10884;SDS011;5495;53.252;10.390;2023-02-19T13:30:03;5.03;;;0.90;;
10884;SDS011;5495;53.252;10.390;2023-02-19T13:32:54;2.73;;;0.93;;
10884;SDS011;5495;53.252;10.390;2023-02-19T13:35:49;6.80;;;1.13;;
10884;SDS011;5495;53.252;10.390;2023-02-19T13:38:32;3.00;;;1.00;;
10884;SDS011;5495;53.252;10.390;2023-02-19T13:41:05;1.77;;;0.63;;
10884;SDS011;5495;53.252;10.390;2023-02-19T13:43:42;3.67;;;0.90;;
10884;SDS011;5495;53.252;10.390;2023-02-19T13:46:21;5.57;;;0.90;;
10884;SDS011;5495;53.252;10.390;2023-02-19T14:01:19;3.57;;;0.83;;
10884;SDS011;5495;53.252;10.390;2023-02-19T14:04:39;6.17;;;0.80;;
10884;SDS011;5495;53.252;10.390;2023-02-19T14:19:43;3.13;;;0.80;;
10884;SDS011;5495;53.252;10.390;2023-02-19T14:28:21;2.53;;;1.00;;
10884;SDS011;5495;53.252;10.390;2023-02-19T14:30:55;3.90;;;0.97;;
10884;SDS011;5495;53.252;10.390;2023-02-19T14:33:42;2.63;;;0.70;;
10884;SDS011;5495;53.252;10.390;2023-02-19T14:36:26;4.90;;;0.80;;
10884;SDS011;5495;53.252;10.390;2023-02-19T14:39:02;8.70;;;1.13;;
10884;SDS011;5495;53.252;10.390;2023-02-19T14:41:33;5.67;;;1.00;;
10884;SDS011;5495;53.252;10.390;2023-02-19T14:44:04;2.87;;;0.90;;
10884;SDS011;5495;53.252;10.390;2023-02-19T14:46:48;3.73;;;0.87;;
10884;SDS011;5495;53.252;10.390;2023-02-19T14:49:23;3.60;;;0.90;;
10884;SDS011;5495;53.252;10.390;2023-02-19T14:51:55;2.87;;;0.97;;
10884;SDS011;5495;53.252;10.390;2023-02-19T14:54:32;2.47;;;0.70;;
10884;SDS011;5495;53.252;10.390;2023-02-19T14:57:17;4.30;;;1.00;;
10884;SDS011;5495;53.252;10.390;2023-02-19T14:59:51;4.33;;;0.90;;
10884;SDS011;5495;53.252;10.390;2023-02-19T15:02:21;4.03;;;0.93;;
10884;SDS011;5495;53.252;10.390;2023-02-19T15:05:00;3.73;;;1.43;;
10884;SDS011;5495;53.252;10.390;2023-02-19T15:07:58;4.53;;;0.87;;
10884;SDS011;5495;53.252;10.390;2023-02-19T15:10:36;2.53;;;0.73;;
10884;SDS011;5495;53.252;10.390;2023-02-19T15:13:04;2.70;;;0.87;;
10884;SDS011;5495;53.252;10.390;2023-02-19T15:15:37;4.47;;;0.90;;
10884;SDS011;5495;53.252;10.390;2023-02-19T15:18:12;2.47;;;0.80;;
10884;SDS011;5495;53.252;10.390;2023-02-19T15:20:48;4.33;;;1.10;;
10884;SDS011;5495;53.252;10.390;2023-02-19T15:23:32;3.53;;;0.80;;
10884;SDS011;5495;53.252;10.390;2023-02-19T15:26:02;5.23;;;1.00;;
10884;SDS011;5495;53.252;10.390;2023-02-19T15:28:31;2.20;;;0.90;;
10884;SDS011;5495;53.252;10.390;2023-02-19T15:31:09;3.40;;;1.10;;
10884;SDS011;5495;53.252;10.390;2023-02-19T15:33:52;4.57;;;0.80;;
10884;SDS011;5495;53.252;10.390;2023-02-19T15:36:23;4.33;;;1.00;;
10884;SDS011;5495;53.252;10.390;2023-02-19T15:38:56;3.10;;;1.30;;
10884;SDS011;5495;53.252;10.390;2023-02-19T15:41:26;3.17;;;0.87;;
10884;SDS011;5495;53.252;10.390;2023-02-19T15:44:02;5.17;;;0.80;;
10884;SDS011;5495;53.252;10.390;2023-02-19T15:46:42;3.33;;;1.13;;
10884;SDS011;5495;53.252;10.390;2023-02-19T15:49:12;4.43;;;0.63;;
10884;SDS011;5495;53.252;10.390;2023-02-19T15:51:49;4.43;;;1.00;;
10884;SDS011;5495;53.252;10.390;2023-02-19T15:54:26;3.80;;;0.93;;
10884;SDS011;5495;53.252;10.390;2023-02-19T15:57:00;4.97;;;0.87;;
10884;SDS011;5495;53.252;10.390;2023-02-19T15:59:30;5.43;;;1.30;;
10884;SDS011;5495;53.252;10.390;2023-02-19T16:02:03;4.57;;;1.10;;
10884;SDS011;5495;53.252;10.390;2023-02-19T16:04:35;4.00;;;1.10;;
10884;SDS011;5495;53.252;10.390;2023-02-19T16:07:22;3.47;;;0.97;;
10884;SDS011;5495;53.252;10.390;2023-02-19T16:10:05;3.73;;;1.23;;